createdAt,value
2022-08-11T00:00:12.461Z,16.46
2022-08-11T00:03:05.457Z,16.44
2022-08-11T00:05:44.451Z,16.40
2022-08-11T00:08:24.711Z,16.38
2022-08-11T00:10:58.605Z,16.34
2022-08-11T00:13:45.433Z,16.31
2022-08-11T00:16:22.698Z,16.30
2022-08-11T00:18:54.180Z,16.24
2022-08-11T00:22:02.875Z,16.18
2022-08-11T00:24:13.020Z,16.16
2022-08-11T00:26:40.756Z,16.16
2022-08-11T00:29:10.631Z,16.20
2022-08-11T00:31:45.841Z,16.23
2022-08-11T00:34:15.997Z,16.23
2022-08-11T00:36:50.346Z,16.23
2022-08-11T00:39:29.158Z,16.24
2022-08-11T00:42:22.279Z,16.24
2022-08-11T00:45:10.337Z,16.22
2022-08-11T00:48:16.877Z,16.17
2022-08-11T00:51:05.060Z,16.14
2022-08-11T00:53:36.978Z,16.12
2022-08-11T00:56:29.749Z,16.09
2022-08-11T00:59:34.882Z,16.08
2022-08-11T01:02:16.557Z,16.03
2022-08-11T01:04:53.814Z,16.00
2022-08-11T01:08:01.334Z,15.95
2022-08-11T01:10:48.826Z,15.89
2022-08-11T01:13:22.308Z,15.86
2022-08-11T01:16:05.951Z,15.84
2022-08-11T01:19:05.566Z,15.81
2022-08-11T01:22:07.213Z,15.77
2022-08-11T01:25:08.088Z,15.70
2022-08-11T01:28:07.878Z,15.64
2022-08-11T01:30:54.262Z,15.60
2022-08-11T01:33:38.993Z,15.55
2022-08-11T01:36:25.711Z,15.52
2022-08-11T01:39:02.127Z,15.49
2022-08-11T01:42:04.560Z,15.47
2022-08-11T01:45:03.290Z,15.46
2022-08-11T01:47:53.428Z,15.48
2022-08-11T01:50:51.523Z,15.47
2022-08-11T01:53:28.423Z,15.45
2022-08-11T01:56:05.167Z,15.43
2022-08-11T01:58:45.337Z,15.41
2022-08-11T02:01:12.953Z,15.38
2022-08-11T02:03:48.069Z,15.36
2022-08-11T02:06:44.039Z,15.33
2022-08-11T02:09:49.889Z,15.28
2022-08-11T02:12:28.111Z,15.21
2022-08-11T02:15:20.780Z,15.17
2022-08-11T02:18:05.119Z,15.14
2022-08-11T02:20:59.393Z,15.15
2022-08-11T02:24:05.324Z,15.14
2022-08-11T02:26:28.795Z,15.12
2022-08-11T02:28:56.420Z,15.09
2022-08-11T02:32:25.046Z,15.07
2022-08-11T02:35:08.713Z,15.04
2022-08-11T02:37:50.246Z,15.02
2022-08-11T02:40:25.142Z,15.00
2022-08-11T02:43:16.508Z,14.99
2022-08-11T02:46:03.156Z,14.97
2022-08-11T02:48:56.332Z,14.97
2022-08-11T02:51:42.322Z,14.95
2022-08-11T02:54:41.886Z,14.91
2022-08-11T02:57:18.899Z,14.87
2022-08-11T03:00:07.777Z,14.84
2022-08-11T03:02:54.782Z,14.80
2022-08-11T03:05:31.463Z,14.78
2022-08-11T03:07:59.201Z,14.78
2022-08-11T03:10:45.716Z,14.79
2022-08-11T03:13:38.564Z,14.80
2022-08-11T03:16:44.371Z,14.80
2022-08-11T03:19:28.007Z,14.82
2022-08-11T03:22:17.637Z,14.84
2022-08-11T03:25:08.719Z,14.84
2022-08-11T03:28:11.367Z,14.81
2022-08-11T03:31:11.029Z,14.78
2022-08-11T03:34:06.600Z,14.77
2022-08-11T03:37:16.665Z,14.79
2022-08-11T03:40:13.343Z,14.85
2022-08-11T03:42:58.575Z,14.96
2022-08-11T03:45:40.757Z,15.06
2022-08-11T03:48:43.084Z,15.14
2022-08-11T03:51:51.614Z,15.15
2022-08-11T03:54:30.883Z,15.17
2022-08-11T03:57:10.723Z,15.19
2022-08-11T03:59:56.503Z,15.20
2022-08-11T04:02:40.087Z,15.21
2022-08-11T04:05:26.387Z,15.24
2022-08-11T04:08:12.905Z,15.26
2022-08-11T04:10:58.245Z,15.27
2022-08-11T04:13:46.259Z,15.31
2022-08-11T04:16:32.825Z,15.32
2022-08-11T04:19:31.324Z,15.29
2022-08-11T04:22:15.307Z,15.28
2022-08-11T04:24:59.131Z,15.26
2022-08-11T04:27:51.565Z,15.25
2022-08-11T04:30:27.605Z,15.26
2022-08-11T04:33:34.350Z,15.28
2022-08-11T04:36:51.847Z,15.35
2022-08-11T04:39:51.461Z,15.40
2022-08-11T04:43:07.099Z,15.44
2022-08-11T04:45:53.005Z,15.49
2022-08-11T04:49:07.370Z,15.51
2022-08-11T04:52:21.529Z,15.53
2022-08-11T04:55:39.171Z,15.59
2022-08-11T04:58:22.724Z,15.68
2022-08-11T05:01:49.029Z,15.80
2022-08-11T05:04:54.793Z,15.98
2022-08-11T05:07:41.433Z,16.11
2022-08-11T05:10:25.240Z,16.21
2022-08-11T05:13:20.892Z,16.30
2022-08-11T05:16:10.351Z,16.42
2022-08-11T05:19:05.753Z,16.52
2022-08-11T05:21:51.329Z,16.68
2022-08-11T05:24:40.904Z,16.81
2022-08-11T05:27:27.110Z,16.92
2022-08-11T05:30:27.115Z,17.03
2022-08-11T05:33:23.753Z,17.14
2022-08-11T05:36:17.236Z,17.21
2022-08-11T05:39:10.747Z,17.29
2022-08-11T05:41:54.938Z,17.40
2022-08-11T05:44:39.098Z,17.51
2022-08-11T05:47:24.566Z,17.61
2022-08-11T05:50:09.333Z,17.68
2022-08-11T05:53:01.213Z,17.74
2022-08-11T05:56:02.387Z,17.87
2022-08-11T05:58:42.707Z,17.96
2022-08-11T06:01:14.085Z,18.11
2022-08-11T06:04:01.445Z,18.22
2022-08-11T06:06:29.923Z,18.35
2022-08-11T06:08:59.466Z,18.38
2022-08-11T06:11:43.858Z,18.42
2022-08-11T06:14:15.647Z,18.48
2022-08-11T06:16:48.464Z,18.56
2022-08-11T06:19:21.204Z,18.62
2022-08-11T06:21:52.033Z,18.67
2022-08-11T06:24:20.237Z,18.75
2022-08-11T06:27:11.177Z,18.84
2022-08-11T06:29:55.037Z,18.92
2022-08-11T06:32:36.056Z,19.00
2022-08-11T06:35:23.800Z,19.11
2022-08-11T06:38:17.798Z,19.28
2022-08-11T06:41:16.329Z,19.43
2022-08-11T06:44:04.665Z,19.60
2022-08-11T06:46:38.680Z,19.76
2022-08-11T06:49:27.031Z,19.88
2022-08-11T06:51:56.797Z,19.95
2022-08-11T06:54:32.502Z,20.03
2022-08-11T06:57:33.156Z,20.15
2022-08-11T07:00:18.332Z,20.32
2022-08-11T07:03:02.023Z,20.42
2022-08-11T07:05:45.332Z,20.51
2022-08-11T07:08:44.888Z,20.58
2022-08-11T07:11:59.447Z,20.73
2022-08-11T07:14:53.055Z,20.89
2022-08-11T07:17:30.289Z,21.03
2022-08-11T07:20:17.211Z,21.14
2022-08-11T07:23:13.139Z,21.24
2022-08-11T07:25:59.758Z,21.28
2022-08-11T07:28:46.671Z,21.28
2022-08-11T07:31:21.346Z,21.36
2022-08-11T07:34:08.239Z,21.44
2022-08-11T07:36:42.733Z,21.58
2022-08-11T07:39:24.582Z,21.69
2022-08-11T07:41:54.982Z,21.81
2022-08-11T07:44:30.616Z,21.89
2022-08-11T07:47:16.503Z,21.98
2022-08-11T07:50:03.191Z,22.08
2022-08-11T07:52:34.956Z,22.14
2022-08-11T07:55:08.394Z,22.24
2022-08-11T07:58:14.574Z,22.30
2022-08-11T08:01:21.468Z,22.41
2022-08-11T08:04:07.375Z,22.47
2022-08-11T08:06:53.264Z,22.54
2022-08-11T08:09:38.754Z,22.60
2022-08-11T08:12:24.436Z,22.69
2022-08-11T08:15:09.935Z,22.84
2022-08-11T08:18:09.776Z,22.93
2022-08-11T08:20:50.033Z,23.01
2022-08-11T08:23:33.066Z,23.09
2022-08-11T08:26:30.294Z,23.16
2022-08-11T08:29:17.486Z,23.19
2022-08-11T08:31:48.565Z,23.22
2022-08-11T08:34:17.949Z,23.24
2022-08-11T08:36:48.142Z,23.29
2022-08-11T08:39:21.503Z,23.35
2022-08-11T08:41:54.422Z,23.43
2022-08-11T08:44:41.469Z,23.48
2022-08-11T08:47:15.188Z,23.57
2022-08-11T08:50:08.248Z,23.45
2022-08-11T08:52:43.603Z,23.50
2022-08-11T08:55:18.119Z,23.71
2022-08-11T08:57:49.491Z,23.91
2022-08-11T09:00:23.154Z,23.91
2022-08-11T09:02:52.212Z,23.98
2022-08-11T09:05:21.319Z,24.11
2022-08-11T09:07:54.294Z,24.28
2022-08-11T09:10:23.171Z,24.33
2022-08-11T09:12:51.969Z,24.51
2022-08-11T09:15:22.208Z,24.68
2022-08-11T09:18:03.481Z,24.61
2022-08-11T09:20:34.684Z,24.52
2022-08-11T09:26:30.463Z,24.88
2022-08-11T09:29:00.646Z,24.90
2022-08-11T09:31:39.603Z,25.04
2022-08-11T09:34:14.596Z,25.22
2022-08-11T09:37:02.138Z,25.42
2022-08-11T09:39:47.545Z,25.51
2022-08-11T09:42:23.161Z,25.65
2022-08-11T09:44:53.507Z,25.67
2022-08-11T09:47:28.724Z,25.70
2022-08-11T09:50:02.585Z,25.81
2022-08-11T09:52:36.072Z,25.85
2022-08-11T09:55:10.960Z,25.95
2022-08-11T09:57:56.759Z,26.11
2022-08-11T10:00:32.241Z,26.03
2022-08-11T10:03:07.121Z,25.99
2022-08-11T10:05:54.235Z,25.80
2022-08-11T10:08:27.699Z,25.56
2022-08-11T10:10:57.742Z,25.46
2022-08-11T10:14:31.946Z,25.51
2022-08-11T10:16:28.097Z,25.26
2022-08-11T10:18:59.564Z,25.29
2022-08-11T10:21:30.297Z,25.59
2022-08-11T10:24:23.024Z,25.74
2022-08-11T10:27:00.714Z,25.72
2022-08-11T10:29:49.907Z,25.93
2022-08-11T10:32:57.719Z,25.93
2022-08-11T10:35:31.737Z,25.58
2022-08-11T10:38:05.867Z,25.29
2022-08-11T10:40:45.097Z,25.45
2022-08-11T10:47:20.130Z,25.79
2022-08-11T10:50:07.967Z,26.03
2022-08-11T10:52:54.016Z,25.88
2022-08-11T10:55:42.063Z,25.64
2022-08-11T10:58:30.123Z,25.48
2022-08-11T11:01:01.367Z,25.67
2022-08-11T11:03:31.114Z,25.77
2022-08-11T11:06:28.334Z,25.62
2022-08-11T11:09:04.982Z,25.58
2022-08-11T11:11:53.255Z,25.71
2022-08-11T11:14:46.144Z,25.96
2022-08-11T11:17:26.547Z,26.16
2022-08-11T11:20:02.827Z,26.29
2022-08-11T11:22:39.207Z,26.14
2022-08-11T11:25:28.342Z,25.91
2022-08-11T11:28:17.949Z,25.76
2022-08-11T11:31:11.493Z,25.87
2022-08-11T11:34:15.820Z,26.02
2022-08-11T11:36:51.772Z,26.08
2022-08-11T11:39:28.896Z,26.56
2022-08-11T11:42:00.750Z,26.88
2022-08-11T11:44:29.704Z,26.98
2022-08-11T11:46:58.846Z,27.34
2022-08-11T11:49:29.993Z,27.77
2022-08-11T11:51:59.843Z,28.18
2022-08-11T11:54:34.799Z,28.55
2022-08-11T11:57:21.131Z,28.83
2022-08-11T12:00:07.418Z,29.22
2022-08-11T12:02:40.178Z,29.56
2022-08-11T12:05:10.914Z,29.84
2022-08-11T12:07:57.022Z,29.86
2022-08-11T12:10:40.968Z,29.73
2022-08-11T12:13:26.324Z,29.77
2022-08-11T12:16:33.192Z,30.03
2022-08-11T12:18:53.377Z,30.47
2022-08-11T12:21:23.345Z,30.81
2022-08-11T12:24:08.087Z,30.93
2022-08-11T12:27:15.764Z,30.96
2022-08-11T12:29:54.249Z,31.01
2022-08-11T12:32:30.136Z,31.22
2022-08-11T12:34:58.730Z,31.51
2022-08-11T12:37:31.741Z,31.77
2022-08-11T12:40:43.008Z,31.90
2022-08-11T12:43:38.178Z,31.94
2022-08-11T12:46:19.153Z,32.46
2022-08-11T12:49:07.618Z,32.75
2022-08-11T12:52:14.713Z,32.67
2022-08-11T12:55:36.332Z,32.43
2022-08-11T12:58:24.025Z,32.22
2022-08-11T13:01:12.568Z,32.28
2022-08-11T13:03:56.688Z,32.33
2022-08-11T13:06:27.422Z,31.91
2022-08-11T13:09:01.001Z,31.32
2022-08-11T13:11:56.913Z,30.99
2022-08-11T13:14:27.637Z,31.21
2022-08-11T13:17:13.180Z,30.97
2022-08-11T13:19:48.891Z,31.07
2022-08-11T13:22:20.279Z,31.78
2022-08-11T13:24:50.109Z,32.41
2022-08-11T13:27:20.683Z,32.60
2022-08-11T13:29:49.943Z,32.92
2022-08-11T13:32:20.324Z,33.39
2022-08-11T13:34:49.851Z,33.91
2022-08-11T13:38:18.336Z,34.21
2022-08-11T13:40:13.569Z,34.31
2022-08-11T13:42:44.357Z,34.48
2022-08-11T13:45:16.238Z,34.35
2022-08-11T13:47:45.534Z,33.92
2022-08-11T13:50:16.787Z,33.61
2022-08-11T13:52:50.129Z,33.66
2022-08-11T13:55:50.767Z,33.99
2022-08-11T13:58:19.086Z,34.11
2022-08-11T14:00:52.928Z,34.24
2022-08-11T14:03:26.156Z,34.71
2022-08-11T14:06:16.643Z,35.07
2022-08-11T14:08:47.411Z,35.23
2022-08-11T14:12:22.561Z,35.61
2022-08-11T14:14:33.417Z,35.77
2022-08-11T14:17:09.917Z,35.73
2022-08-11T14:19:43.166Z,35.13
2022-08-11T14:22:15.941Z,34.71
2022-08-11T14:24:51.044Z,34.56
2022-08-11T14:28:29.440Z,34.38
2022-08-11T14:30:32.778Z,34.00
2022-08-11T14:33:16.842Z,33.89
2022-08-11T14:35:48.778Z,34.08
2022-08-11T14:38:20.062Z,34.36
2022-08-11T14:41:09.016Z,34.50
2022-08-11T14:44:12.612Z,34.78
2022-08-11T14:46:58.800Z,34.99
2022-08-11T14:49:28.147Z,35.34
2022-08-11T14:52:00.231Z,35.68
2022-08-11T14:54:48.459Z,35.62
2022-08-11T14:57:19.804Z,34.91
2022-08-11T15:00:14.099Z,34.06
2022-08-11T15:02:59.374Z,33.20
2022-08-11T15:05:28.330Z,32.39
2022-08-11T15:07:58.358Z,31.67
2022-08-11T15:10:27.006Z,31.08
2022-08-11T15:12:55.460Z,30.86
2022-08-11T15:15:41.505Z,30.58
2022-08-11T15:18:14.626Z,30.26
2022-08-11T15:21:00.174Z,30.09
2022-08-11T15:23:46.029Z,30.03
2022-08-11T15:26:48.452Z,30.18
2022-08-11T15:29:36.973Z,30.24
2022-08-11T15:32:22.870Z,30.34
2022-08-11T15:35:11.970Z,30.36
2022-08-11T15:37:42.902Z,30.34
2022-08-11T15:40:34.669Z,30.47
2022-08-11T15:43:34.843Z,30.45
2022-08-11T15:46:08.683Z,30.54
2022-08-11T15:48:44.193Z,30.54
2022-08-11T15:51:27.606Z,30.61
2022-08-11T15:54:00.136Z,30.57
2022-08-11T15:56:29.423Z,30.39
2022-08-11T15:59:42.023Z,30.32
2022-08-11T16:02:28.205Z,30.17
2022-08-11T16:04:57.973Z,29.97
2022-08-11T16:07:36.381Z,29.76
2022-08-11T16:10:18.752Z,29.38
2022-08-11T16:13:05.579Z,29.05
2022-08-11T16:15:56.359Z,28.54
2022-08-11T16:18:40.790Z,28.25
2022-08-11T16:21:26.025Z,28.03
2022-08-11T16:24:05.927Z,27.81
2022-08-11T16:27:07.906Z,27.67
2022-08-11T16:29:29.967Z,27.55
2022-08-11T16:32:15.085Z,27.43
2022-08-11T16:35:12.086Z,27.35
2022-08-11T16:37:57.522Z,27.37
2022-08-11T16:40:27.144Z,27.35
2022-08-11T16:43:15.574Z,27.31
2022-08-11T16:46:00.596Z,27.25
2022-08-11T16:48:37.423Z,27.20
2022-08-11T16:51:08.146Z,27.14
2022-08-11T16:53:54.944Z,27.03
2022-08-11T16:56:36.511Z,26.89
2022-08-11T16:59:18.006Z,26.78
2022-08-11T17:01:54.368Z,26.68
2022-08-11T17:04:47.182Z,26.59
2022-08-11T17:07:41.542Z,26.56
2022-08-11T17:10:50.518Z,26.50
2022-08-11T17:13:31.724Z,26.40
2022-08-11T17:16:19.535Z,26.40
2022-08-11T17:19:04.427Z,26.43
2022-08-11T17:22:05.318Z,26.44
2022-08-11T17:24:40.479Z,26.38
2022-08-11T17:27:19.133Z,26.28
2022-08-11T17:29:54.391Z,26.17
2022-08-11T17:32:56.166Z,26.02
2022-08-11T17:35:31.042Z,25.81
2022-08-11T17:38:17.915Z,25.74
2022-08-11T17:41:07.080Z,25.70
2022-08-11T17:43:51.636Z,25.76
2022-08-11T17:46:36.169Z,26.15
2022-08-11T17:49:08.010Z,26.58
2022-08-11T17:51:55.679Z,26.82
2022-08-11T17:54:42.280Z,27.11
2022-08-11T17:57:29.183Z,27.28
2022-08-11T18:00:00.701Z,27.38
2022-08-11T18:02:47.351Z,27.41
2022-08-11T18:05:19.009Z,27.44
2022-08-11T18:08:07.153Z,27.43
2022-08-11T18:10:52.526Z,27.31
2022-08-11T18:13:40.232Z,27.08
2022-08-11T18:16:25.223Z,26.83
2022-08-11T18:19:09.567Z,26.57
2022-08-11T18:22:03.527Z,26.37
2022-08-11T18:25:02.831Z,26.17
2022-08-11T18:27:49.359Z,25.95
2022-08-11T18:30:33.433Z,25.76
2022-08-11T18:33:45.134Z,25.57
2022-08-11T18:36:26.893Z,25.37
2022-08-11T18:39:13.942Z,25.21
2022-08-11T18:42:01.232Z,24.94
2022-08-11T18:44:48.342Z,24.70
2022-08-11T18:47:38.033Z,24.54
2022-08-11T18:50:38.628Z,24.43
2022-08-11T18:53:26.910Z,24.35
2022-08-11T18:56:13.628Z,24.26
2022-08-11T18:59:02.080Z,24.17
2022-08-11T19:01:54.224Z,24.11
2022-08-11T19:04:39.175Z,24.05
2022-08-11T19:07:25.480Z,23.99
2022-08-11T19:10:13.294Z,23.91
2022-08-11T19:12:59.198Z,23.87
2022-08-11T19:15:46.318Z,23.78
2022-08-11T19:18:34.496Z,23.70
2022-08-11T19:21:19.122Z,23.64
2022-08-11T19:24:08.284Z,23.56
2022-08-11T19:26:53.453Z,23.45
2022-08-11T19:30:04.652Z,23.34
2022-08-11T19:32:43.590Z,23.25
2022-08-11T19:35:28.025Z,23.15
2022-08-11T19:38:12.657Z,23.05
2022-08-11T19:40:57.640Z,22.95
2022-08-11T19:43:45.080Z,22.86
2022-08-11T19:46:28.525Z,22.77
2022-08-11T19:49:13.189Z,22.69
2022-08-11T19:51:58.570Z,22.60
2022-08-11T19:54:47.083Z,22.51
2022-08-11T19:57:38.719Z,22.46
2022-08-11T20:00:29.937Z,22.30
2022-08-11T20:03:15.909Z,22.12
2022-08-11T20:06:01.507Z,22.07
2022-08-11T20:08:46.318Z,22.05
2022-08-11T20:11:32.459Z,22.03
2022-08-11T20:14:17.856Z,22.02
2022-08-11T20:17:02.920Z,21.96
2022-08-11T20:19:55.045Z,21.89
2022-08-11T20:22:42.679Z,21.88
2022-08-11T20:25:31.121Z,21.88
2022-08-11T20:28:15.937Z,21.83
2022-08-11T20:31:01.669Z,21.70
2022-08-11T20:33:50.620Z,21.58
2022-08-11T20:36:34.996Z,21.50
2022-08-11T20:39:19.942Z,21.39
2022-08-11T20:42:04.839Z,21.26
2022-08-11T20:44:52.151Z,21.13
2022-08-11T20:47:59.460Z,21.04
2022-08-11T20:50:45.557Z,20.92
2022-08-11T20:53:32.162Z,20.85
2022-08-11T20:56:21.398Z,20.84
2022-08-11T21:02:27.894Z,20.66
2022-08-11T21:05:13.187Z,20.63
2022-08-11T21:08:07.071Z,20.63
2022-08-11T21:10:54.776Z,20.59
2022-08-11T21:13:46.336Z,20.59
2022-08-11T21:16:38.742Z,20.54
2022-08-11T21:19:59.872Z,20.48
2022-08-11T21:22:58.715Z,20.42
2022-08-11T21:25:52.936Z,20.34
2022-08-11T21:28:38.201Z,20.25
2022-08-11T21:31:24.501Z,20.17
2022-08-11T21:34:10.089Z,20.10
2022-08-11T21:36:56.298Z,20.01
2022-08-11T21:39:41.668Z,19.94
2022-08-11T21:42:26.970Z,19.88
2022-08-11T21:45:13.472Z,19.79
2022-08-11T21:48:00.975Z,19.66
2022-08-11T21:50:46.138Z,19.54
2022-08-11T21:53:31.104Z,19.45
2022-08-11T21:56:17.213Z,19.36
2022-08-11T21:59:07.103Z,19.29
2022-08-11T22:01:53.256Z,19.28
2022-08-11T22:04:37.868Z,19.26
2022-08-11T22:07:22.801Z,19.21
2022-08-11T22:10:41.561Z,19.18
2022-08-11T22:13:10.960Z,19.14
2022-08-11T22:15:54.913Z,19.05
2022-08-11T22:18:40.244Z,19.00
2022-08-11T22:22:00.997Z,18.99
2022-08-11T22:24:30.352Z,19.02
2022-08-11T22:27:14.485Z,18.98
2022-08-11T22:29:58.290Z,18.97
2022-08-11T22:32:45.570Z,18.94
2022-08-11T22:35:32.509Z,18.93
2022-08-11T22:38:17.287Z,18.90
2022-08-11T22:41:01.031Z,18.85
2022-08-11T22:43:44.296Z,18.79
2022-08-11T22:46:31.441Z,18.71
2022-08-11T22:49:15.733Z,18.64
2022-08-11T22:52:01.444Z,18.53
2022-08-11T22:54:45.850Z,18.42
2022-08-11T22:57:31.582Z,18.34
2022-08-11T23:00:17.029Z,18.26
2022-08-11T23:03:04.343Z,18.11
2022-08-11T23:05:49.593Z,17.97
2022-08-11T23:08:33.902Z,17.85
2022-08-11T23:11:19.564Z,17.74
2022-08-11T23:14:04.014Z,17.67
2022-08-11T23:16:47.549Z,17.60
2022-08-11T23:20:09.958Z,17.53
2022-08-11T23:22:49.155Z,17.45
2022-08-11T23:25:36.760Z,17.42
2022-08-11T23:28:23.808Z,17.42
2022-08-11T23:31:10.412Z,17.41
2022-08-11T23:34:00.967Z,17.41
2022-08-11T23:36:47.829Z,17.40
2022-08-11T23:39:33.310Z,17.38
2022-08-11T23:42:18.585Z,17.37
2022-08-11T23:45:07.181Z,17.35
2022-08-11T23:47:56.354Z,17.36
2022-08-11T23:50:41.874Z,17.36
2022-08-11T23:53:26.194Z,17.36
2022-08-11T23:56:10.956Z,17.35
2022-08-11T23:58:55.037Z,17.33
